createdAt,value
2019-03-15T00:00:18.407Z,7.29
2019-03-15T00:02:51.802Z,7.32
2019-03-15T00:05:25.283Z,7.21
2019-03-15T00:07:56.797Z,7.26
2019-03-15T00:10:29.473Z,7.19
2019-03-15T00:13:00.999Z,7.22
2019-03-15T00:15:32.633Z,7.25
2019-03-15T00:18:04.136Z,7.27
2019-03-15T00:20:36.308Z,7.29
2019-03-15T00:23:07.814Z,7.21
2019-03-15T00:25:39.317Z,7.22
2019-03-15T00:28:10.819Z,7.26
2019-03-15T00:30:42.712Z,7.26
2019-03-15T00:33:14.573Z,7.19
2019-03-15T00:35:46.793Z,7.19
2019-03-15T00:38:18.307Z,7.19
2019-03-15T00:40:49.821Z,7.19
2019-03-15T00:43:21.319Z,7.17
2019-03-15T00:45:52.911Z,7.21
2019-03-15T00:48:24.663Z,7.19
2019-03-15T00:50:56.322Z,7.26
2019-03-15T00:53:27.901Z,7.17
2019-03-15T00:55:59.492Z,7.16
2019-03-15T00:58:30.996Z,7.08
2019-03-15T01:01:02.526Z,7.09
2019-03-15T01:03:34.104Z,7.11
2019-03-15T01:06:05.694Z,7.19
2019-03-15T01:08:37.350Z,7.22
2019-03-15T01:11:09.203Z,7.19
2019-03-15T01:13:40.859Z,7.13
2019-03-15T01:16:12.380Z,7.11
2019-03-15T01:18:44.650Z,7.12
2019-03-15T01:21:16.314Z,7.13
2019-03-15T01:23:47.825Z,7.16
2019-03-15T01:26:19.507Z,7.16
2019-03-15T01:28:51.030Z,7.17
2019-03-15T01:31:22.773Z,7.18
2019-03-15T01:33:54.295Z,7.19
2019-03-15T01:36:25.806Z,7.28
2019-03-15T01:38:57.448Z,7.30
2019-03-15T01:41:28.966Z,7.23
2019-03-15T01:44:00.557Z,7.26
2019-03-15T01:46:33.745Z,7.26
2019-03-15T01:49:05.503Z,7.25
2019-03-15T01:51:37.131Z,7.29
2019-03-15T01:54:08.791Z,7.25
2019-03-15T01:56:40.371Z,7.23
2019-03-15T01:59:12.991Z,7.26
2019-03-15T02:01:44.602Z,7.26
2019-03-15T02:04:16.500Z,7.24
2019-03-15T02:06:49.264Z,7.28
2019-03-15T02:09:20.795Z,7.25
2019-03-15T02:11:52.293Z,7.25
2019-03-15T02:14:24.456Z,7.31
2019-03-15T02:16:55.956Z,7.21
2019-03-15T02:19:27.576Z,7.17
2019-03-15T02:21:59.080Z,7.11
2019-03-15T02:24:30.627Z,7.07
2019-03-15T02:27:02.160Z,7.06
2019-03-15T02:29:33.904Z,7.13
2019-03-15T02:32:05.433Z,7.13
2019-03-15T02:34:37.074Z,7.09
2019-03-15T02:37:10.265Z,7.11
2019-03-15T02:39:41.915Z,7.05
2019-03-15T02:42:13.501Z,7.11
2019-03-15T02:44:46.102Z,7.04
2019-03-15T02:47:19.443Z,7.03
2019-03-15T02:49:51.362Z,7.01
2019-03-15T02:52:23.002Z,6.97
2019-03-15T02:54:54.779Z,6.91
2019-03-15T02:57:26.270Z,6.76
2019-03-15T02:59:58.405Z,6.80
2019-03-15T03:02:29.990Z,6.77
2019-03-15T03:05:01.517Z,6.92
2019-03-15T03:07:33.118Z,7.00
2019-03-15T03:10:05.524Z,6.97
2019-03-15T03:12:37.374Z,6.95
2019-03-15T03:15:09.641Z,6.99
2019-03-15T03:17:41.683Z,7.08
2019-03-15T03:20:13.289Z,7.11
2019-03-15T03:22:45.565Z,7.10
2019-03-15T03:25:17.435Z,7.13
2019-03-15T03:27:49.227Z,7.13
2019-03-15T03:30:21.327Z,6.96
2019-03-15T03:32:52.906Z,6.88
2019-03-15T03:35:25.029Z,6.89
2019-03-15T03:37:56.814Z,6.84
2019-03-15T03:40:29.121Z,6.85
2019-03-15T03:43:01.165Z,6.73
2019-03-15T03:45:32.835Z,6.83
2019-03-15T03:48:04.481Z,6.87
2019-03-15T03:50:36.054Z,6.79
2019-03-15T03:53:07.574Z,6.85
2019-03-15T03:55:39.268Z,6.85
2019-03-15T03:58:10.848Z,6.92
2019-03-15T04:00:42.874Z,6.96
2019-03-15T04:03:14.390Z,6.99
2019-03-15T04:05:46.033Z,7.02
2019-03-15T04:08:18.918Z,6.97
2019-03-15T04:10:50.981Z,7.07
2019-03-15T04:13:22.479Z,7.14
2019-03-15T04:15:54.482Z,7.12
2019-03-15T04:18:26.198Z,7.10
2019-03-15T04:20:57.787Z,7.11
2019-03-15T04:23:29.312Z,7.10
2019-03-15T04:26:02.453Z,7.11
2019-03-15T04:28:33.980Z,7.10
2019-03-15T04:31:05.945Z,7.10
2019-03-15T04:33:37.470Z,7.09
2019-03-15T04:36:09.002Z,7.13
2019-03-15T04:38:40.574Z,7.17
2019-03-15T04:41:12.096Z,7.16
2019-03-15T04:43:43.650Z,7.22
2019-03-15T04:46:15.786Z,7.27
2019-03-15T04:48:47.446Z,7.29
2019-03-15T04:51:19.052Z,7.28
2019-03-15T04:53:50.692Z,7.30
2019-03-15T04:56:22.369Z,7.29
2019-03-15T04:58:54.810Z,7.31
2019-03-15T05:01:26.315Z,7.26
2019-03-15T05:03:58.392Z,7.35
2019-03-15T05:06:30.307Z,7.32
2019-03-15T05:09:01.824Z,7.34
2019-03-15T05:11:33.384Z,7.41
2019-03-15T05:14:05.261Z,7.37
2019-03-15T05:16:36.785Z,7.33
2019-03-15T05:19:08.312Z,7.34
2019-03-15T05:21:39.843Z,7.33
2019-03-15T05:24:12.250Z,7.39
2019-03-15T05:26:45.423Z,7.43
2019-03-15T05:29:18.045Z,7.49
2019-03-15T05:31:49.580Z,7.44
2019-03-15T05:34:21.116Z,7.43
2019-03-15T05:36:52.739Z,7.35
2019-03-15T05:39:24.281Z,7.37
2019-03-15T05:41:55.793Z,7.41
2019-03-15T05:44:27.317Z,7.42
2019-03-15T05:46:58.832Z,7.42
2019-03-15T05:49:30.378Z,7.48
2019-03-15T05:52:01.995Z,7.44
2019-03-15T05:54:33.513Z,7.45
2019-03-15T05:57:05.097Z,7.49
2019-03-15T05:59:38.258Z,7.47
2019-03-15T06:02:10.532Z,7.48
2019-03-15T06:04:42.058Z,7.49
2019-03-15T06:07:13.706Z,7.49
2019-03-15T06:09:48.015Z,7.53
2019-03-15T06:12:19.729Z,7.57
2019-03-15T06:14:51.399Z,7.55
2019-03-15T06:17:23.608Z,7.54
2019-03-15T06:19:55.202Z,7.55
2019-03-15T06:22:27.982Z,7.61
2019-03-15T06:24:59.580Z,7.58
2019-03-15T06:27:31.454Z,7.57
2019-03-15T06:30:02.982Z,7.65
2019-03-15T06:32:34.592Z,7.59
2019-03-15T06:35:06.542Z,7.63
2019-03-15T06:37:38.065Z,7.65
2019-03-15T06:40:13.491Z,7.66
2019-03-15T06:42:44.724Z,7.69
2019-03-15T06:45:16.291Z,7.64
2019-03-15T06:47:47.837Z,7.68
2019-03-15T06:50:20.576Z,7.65
2019-03-15T06:52:52.371Z,7.72
2019-03-15T06:55:25.579Z,7.78
2019-03-15T06:57:57.480Z,7.79
2019-03-15T07:00:29.075Z,7.76
2019-03-15T07:03:00.618Z,7.77
2019-03-15T07:05:32.257Z,7.78
2019-03-15T07:08:03.784Z,7.84
2019-03-15T07:10:35.344Z,7.82
2019-03-15T07:13:07.983Z,7.79
2019-03-15T07:15:39.570Z,7.86
2019-03-15T07:18:11.270Z,7.94
2019-03-15T07:20:43.070Z,8.07
2019-03-15T07:23:19.384Z,8.09
2019-03-15T07:25:51.049Z,8.20
2019-03-15T07:28:22.739Z,8.26
2019-03-15T07:30:54.454Z,8.22
2019-03-15T07:33:26.436Z,8.18
2019-03-15T07:35:58.051Z,8.14
2019-03-15T07:38:29.662Z,8.12
2019-03-15T07:41:04.132Z,8.10
2019-03-15T07:43:36.813Z,8.15
2019-03-15T07:46:08.543Z,8.23
2019-03-15T07:48:40.152Z,8.32
2019-03-15T07:51:11.900Z,8.36
2019-03-15T07:53:44.528Z,8.39
2019-03-15T07:56:16.109Z,8.45
2019-03-15T07:58:47.780Z,8.47
2019-03-15T08:01:19.270Z,8.33
2019-03-15T08:03:53.806Z,8.29
2019-03-15T08:06:34.865Z,8.28
2019-03-15T08:08:58.990Z,8.32
2019-03-15T08:11:30.837Z,8.21
2019-03-15T08:14:02.458Z,8.21
2019-03-15T08:16:34.604Z,8.19
2019-03-15T08:19:07.860Z,8.13
2019-03-15T08:21:39.449Z,8.19
2019-03-15T08:24:11.359Z,8.21
2019-03-15T08:26:44.180Z,8.41
2019-03-15T08:29:15.699Z,8.49
2019-03-15T08:31:47.330Z,8.58
2019-03-15T08:34:19.157Z,8.64
2019-03-15T08:36:51.226Z,8.54
2019-03-15T08:39:24.380Z,8.43
2019-03-15T08:41:56.203Z,8.36
2019-03-15T08:44:30.740Z,8.39
2019-03-15T08:47:02.385Z,8.40
2019-03-15T08:49:35.172Z,8.37
2019-03-15T08:52:06.881Z,8.37
2019-03-15T08:54:39.441Z,8.31
2019-03-15T08:57:11.158Z,8.28
2019-03-15T08:59:56.607Z,8.30
2019-03-15T09:02:17.417Z,8.37
2019-03-15T09:04:50.493Z,8.51
2019-03-15T09:07:22.322Z,8.64
2019-03-15T09:09:53.807Z,8.86
2019-03-15T09:12:25.473Z,8.89
2019-03-15T09:14:57.315Z,8.95
2019-03-15T09:17:28.928Z,8.98
2019-03-15T09:20:01.085Z,9.06
2019-03-15T09:22:32.599Z,9.00
2019-03-15T09:25:18.048Z,9.03
2019-03-15T09:27:38.232Z,9.04
2019-03-15T09:30:23.294Z,9.03
2019-03-15T09:32:46.368Z,9.09
2019-03-15T09:35:18.141Z,9.07
2019-03-15T09:37:49.858Z,9.07
2019-03-15T09:40:21.444Z,9.27
2019-03-15T09:42:52.973Z,9.43
2019-03-15T09:45:26.118Z,9.58
2019-03-15T09:47:57.661Z,9.63
2019-03-15T09:50:36.146Z,9.52
2019-03-15T09:53:05.825Z,9.75
2019-03-15T09:55:37.655Z,9.90
2019-03-15T09:58:09.720Z,10.04
2019-03-15T10:00:41.407Z,10.19
2019-03-15T10:03:22.167Z,9.95
2019-03-15T10:05:47.804Z,9.97
2019-03-15T10:08:23.175Z,9.93
2019-03-15T10:10:52.874Z,9.80
2019-03-15T10:13:24.686Z,9.98
2019-03-15T10:15:56.399Z,10.06
2019-03-15T10:18:28.051Z,10.15
2019-03-15T10:20:59.674Z,10.23
2019-03-15T10:23:31.341Z,10.44
2019-03-15T10:26:02.960Z,10.57
2019-03-15T10:28:35.890Z,10.67
2019-03-15T10:31:07.564Z,10.76
2019-03-15T10:33:49.878Z,10.85
2019-03-15T10:36:12.386Z,10.98
2019-03-15T10:38:43.915Z,10.92
2019-03-15T10:41:15.496Z,10.95
2019-03-15T10:43:47.156Z,11.03
2019-03-15T10:46:18.919Z,10.88
2019-03-15T10:48:50.539Z,10.81
2019-03-15T10:51:23.556Z,10.69
2019-03-15T10:53:55.181Z,10.49
2019-03-15T10:56:26.691Z,10.30
2019-03-15T10:58:58.261Z,10.52
2019-03-15T11:01:29.903Z,10.57
2019-03-15T11:04:01.499Z,10.36
2019-03-15T11:06:34.111Z,10.29
2019-03-15T11:09:07.409Z,10.24
2019-03-15T11:11:39.158Z,10.41
2019-03-15T11:14:10.679Z,10.58
2019-03-15T11:16:42.212Z,10.49
2019-03-15T11:19:15.677Z,10.11
2019-03-15T11:21:47.111Z,9.99
2019-03-15T11:24:18.652Z,9.96
2019-03-15T11:26:50.636Z,10.02
2019-03-15T11:29:22.260Z,10.11
2019-03-15T11:31:54.052Z,10.44
2019-03-15T11:34:25.851Z,10.74
2019-03-15T11:36:58.749Z,10.55
2019-03-15T11:39:32.752Z,10.71
2019-03-15T11:42:04.613Z,10.91
2019-03-15T11:44:36.546Z,10.92
2019-03-15T11:47:09.250Z,10.77
2019-03-15T11:49:41.029Z,10.87
2019-03-15T11:52:13.328Z,10.73
2019-03-15T11:54:45.340Z,10.72
2019-03-15T11:57:18.959Z,10.85
2019-03-15T11:59:50.620Z,11.05
2019-03-15T12:02:22.272Z,11.26
2019-03-15T12:04:54.142Z,11.37
2019-03-15T12:07:26.434Z,11.36
2019-03-15T12:10:19.092Z,11.31
2019-03-15T12:12:50.973Z,11.36
2019-03-15T12:15:22.781Z,11.54
2019-03-15T12:17:54.538Z,11.60
2019-03-15T12:20:26.128Z,11.50
2019-03-15T12:22:59.341Z,11.19
2019-03-15T12:25:31.527Z,11.23
2019-03-15T12:28:03.276Z,11.21
2019-03-15T12:30:35.449Z,11.01
2019-03-15T12:33:07.219Z,10.90
2019-03-15T12:35:39.063Z,10.86
2019-03-15T12:38:10.644Z,10.91
2019-03-15T12:40:42.178Z,10.99
2019-03-15T12:43:15.146Z,11.26
2019-03-15T12:45:56.877Z,11.45
2019-03-15T12:48:26.573Z,11.35
2019-03-15T12:50:58.172Z,11.35
2019-03-15T12:53:31.459Z,11.09
2019-03-15T12:56:02.989Z,10.96
2019-03-15T12:58:34.523Z,10.80
2019-03-15T13:01:06.330Z,10.89
2019-03-15T13:03:40.721Z,10.92
2019-03-15T13:06:12.252Z,11.07
2019-03-15T13:08:43.852Z,10.95
2019-03-15T13:11:15.574Z,11.02
2019-03-15T13:13:51.045Z,10.97
2019-03-15T13:16:23.700Z,10.79
2019-03-15T13:18:55.538Z,10.84
2019-03-15T13:21:27.146Z,10.94
2019-03-15T13:23:58.658Z,11.01
2019-03-15T13:26:30.221Z,11.10
2019-03-15T13:29:01.934Z,11.21
2019-03-15T13:31:33.459Z,11.39
2019-03-15T13:34:08.605Z,11.44
2019-03-15T13:36:41.654Z,11.43
2019-03-15T13:39:13.247Z,11.39
2019-03-15T13:41:44.983Z,11.35
2019-03-15T13:44:16.599Z,11.29
2019-03-15T13:46:48.253Z,11.27
2019-03-15T13:49:21.632Z,11.33
2019-03-15T13:51:54.113Z,11.36
2019-03-15T13:54:25.780Z,11.35
2019-03-15T13:56:57.292Z,11.25
2019-03-15T13:59:28.884Z,11.33
2019-03-15T14:02:00.474Z,11.32
2019-03-15T14:04:32.223Z,11.40
2019-03-15T14:07:03.744Z,11.55
2019-03-15T14:09:35.546Z,11.61
2019-03-15T14:12:07.132Z,11.79
2019-03-15T14:14:38.734Z,11.92
2019-03-15T14:17:10.278Z,11.75
2019-03-15T14:19:41.871Z,11.38
2019-03-15T14:22:13.405Z,11.34
2019-03-15T14:24:45.015Z,11.37
2019-03-15T14:27:17.197Z,11.30
2019-03-15T14:29:48.775Z,11.36
2019-03-15T14:32:22.416Z,11.23
2019-03-15T14:34:54.109Z,11.22
2019-03-15T14:37:25.899Z,11.27
2019-03-15T14:39:59.232Z,11.16
2019-03-15T14:42:31.068Z,11.26
2019-03-15T14:45:03.051Z,11.21
2019-03-15T14:47:34.702Z,11.25
2019-03-15T14:50:14.010Z,11.08
2019-03-15T14:52:47.958Z,11.01
2019-03-15T14:55:19.493Z,10.92
2019-03-15T14:57:53.619Z,10.85
2019-03-15T15:00:25.401Z,10.88
2019-03-15T15:02:59.074Z,11.00
2019-03-15T15:05:30.606Z,11.02
2019-03-15T15:08:02.122Z,11.00
2019-03-15T15:10:33.723Z,11.02
2019-03-15T15:13:05.405Z,11.01
2019-03-15T15:15:36.925Z,11.06
2019-03-15T15:18:08.502Z,11.05
2019-03-15T15:20:40.040Z,11.03
2019-03-15T15:23:17.431Z,11.00
2019-03-15T15:25:49.128Z,10.98
2019-03-15T15:28:21.438Z,10.97
2019-03-15T15:30:53.689Z,11.01
2019-03-15T15:33:25.339Z,11.03
2019-03-15T15:35:56.852Z,10.99
2019-03-15T15:38:28.467Z,10.95
2019-03-15T15:41:00.040Z,11.00
2019-03-15T15:43:32.012Z,10.96
2019-03-15T15:46:06.060Z,10.96
2019-03-15T15:48:37.577Z,10.97
2019-03-15T15:51:09.096Z,10.91
2019-03-15T15:53:40.625Z,10.94
2019-03-15T15:56:12.218Z,10.86
2019-03-15T15:58:43.836Z,10.82
2019-03-15T16:01:15.434Z,10.81
2019-03-15T16:03:47.143Z,10.71
2019-03-15T16:06:18.755Z,10.73
2019-03-15T16:08:50.274Z,10.66
2019-03-15T16:11:23.144Z,10.66
2019-03-15T16:13:56.257Z,10.68
2019-03-15T16:16:27.849Z,10.61
2019-03-15T16:18:59.350Z,10.62
2019-03-15T16:21:31.096Z,10.58
2019-03-15T16:24:02.693Z,10.56
2019-03-15T16:26:34.404Z,10.48
2019-03-15T16:29:06.288Z,10.48
2019-03-15T16:31:37.968Z,10.43
2019-03-15T16:34:09.813Z,10.44
2019-03-15T16:36:41.460Z,10.30
2019-03-15T16:39:13.150Z,10.25
2019-03-15T16:41:44.796Z,10.26
2019-03-15T16:44:16.474Z,10.19
2019-03-15T16:46:48.133Z,10.13
2019-03-15T16:49:19.819Z,10.11
2019-03-15T16:51:51.436Z,10.13
2019-03-15T16:54:23.077Z,10.09
2019-03-15T16:56:56.248Z,10.00
2019-03-15T16:59:27.856Z,9.92
2019-03-15T17:01:59.561Z,9.75
2019-03-15T17:04:31.159Z,9.79
2019-03-15T17:07:02.786Z,9.75
2019-03-15T17:09:34.470Z,9.73
2019-03-15T17:12:06.070Z,9.69
2019-03-15T17:14:37.733Z,9.68
2019-03-15T17:17:09.407Z,9.61
2019-03-15T17:19:42.086Z,9.57
2019-03-15T17:22:15.519Z,9.49
2019-03-15T17:24:47.376Z,9.45
2019-03-15T17:27:20.994Z,9.41
2019-03-15T17:29:55.582Z,9.40
2019-03-15T17:32:27.187Z,9.38
2019-03-15T17:35:08.291Z,9.30
2019-03-15T17:37:40.374Z,9.20
2019-03-15T17:40:15.770Z,9.11
2019-03-15T17:42:47.369Z,9.12
2019-03-15T17:45:20.397Z,9.05
2019-03-15T17:47:52.385Z,9.10
2019-03-15T17:50:26.893Z,9.03
2019-03-15T17:53:00.194Z,8.94
2019-03-15T17:55:31.840Z,8.96
2019-03-15T17:58:03.595Z,8.93
2019-03-15T18:00:49.416Z,8.82
2019-03-15T18:03:22.055Z,8.82
2019-03-15T18:05:53.871Z,8.87
2019-03-15T18:08:25.487Z,8.82
2019-03-15T18:10:57.306Z,8.80
2019-03-15T18:13:28.915Z,8.80
2019-03-15T18:16:00.451Z,8.81
2019-03-15T18:18:32.065Z,8.79
2019-03-15T18:21:03.965Z,8.78
2019-03-15T18:23:35.547Z,8.85
2019-03-15T18:26:07.151Z,8.87
2019-03-15T18:28:38.664Z,8.87
2019-03-15T18:31:10.258Z,8.88
2019-03-15T18:33:41.862Z,8.96
2019-03-15T18:36:13.553Z,9.04
2019-03-15T18:38:45.267Z,9.07
2019-03-15T18:41:16.937Z,9.09
2019-03-15T18:43:48.607Z,9.08
2019-03-15T18:46:20.143Z,9.09
2019-03-15T18:48:51.732Z,9.03
2019-03-15T18:51:23.569Z,9.05
2019-03-15T18:53:55.155Z,9.10
2019-03-15T18:56:26.651Z,9.12
2019-03-15T18:58:58.538Z,9.22
2019-03-15T19:01:30.263Z,9.22
2019-03-15T19:04:01.995Z,9.15
2019-03-15T19:06:33.552Z,9.16
2019-03-15T19:09:07.699Z,9.27
2019-03-15T19:11:39.318Z,9.30
2019-03-15T19:14:10.967Z,9.23
2019-03-15T19:16:42.569Z,9.21
2019-03-15T19:19:14.252Z,9.08
2019-03-15T19:21:45.944Z,9.09
2019-03-15T19:24:17.536Z,9.06
2019-03-15T19:26:49.123Z,9.10
2019-03-15T19:29:20.870Z,9.11
2019-03-15T19:31:52.627Z,9.10
2019-03-15T19:34:24.238Z,9.02
2019-03-15T19:36:55.917Z,8.99
2019-03-15T19:39:27.454Z,9.00
2019-03-15T19:41:58.941Z,8.98
2019-03-15T19:44:30.713Z,8.95
2019-03-15T19:47:02.292Z,8.93
2019-03-15T19:49:33.822Z,8.94
2019-03-15T19:52:06.706Z,8.93
2019-03-15T19:54:38.375Z,8.87
2019-03-15T19:57:09.962Z,8.91
2019-03-15T19:59:41.900Z,8.95
2019-03-15T20:02:13.514Z,8.95
2019-03-15T20:04:45.027Z,9.01
2019-03-15T20:07:16.545Z,9.07
2019-03-15T20:09:48.374Z,9.07
2019-03-15T20:12:20.134Z,9.06
2019-03-15T20:14:51.839Z,9.07
2019-03-15T20:17:24.810Z,9.07
2019-03-15T20:19:56.401Z,8.91
2019-03-15T20:22:27.966Z,8.71
2019-03-15T20:24:59.550Z,8.64
2019-03-15T20:27:31.227Z,8.68
2019-03-15T20:30:05.553Z,8.63
2019-03-15T20:32:38.748Z,8.67
2019-03-15T20:35:10.802Z,8.64
2019-03-15T20:37:42.572Z,8.68
2019-03-15T20:40:15.016Z,8.72
2019-03-15T20:42:46.703Z,8.70
2019-03-15T20:45:27.392Z,8.72
2019-03-15T20:47:59.213Z,8.70
2019-03-15T20:50:31.507Z,8.78
2019-03-15T20:53:09.772Z,8.83
2019-03-15T20:55:37.137Z,8.90
2019-03-15T20:58:08.906Z,8.96
2019-03-15T21:00:40.433Z,8.94
2019-03-15T21:03:13.192Z,8.92
2019-03-15T21:05:44.722Z,8.86
2019-03-15T21:08:16.317Z,8.80
2019-03-15T21:10:51.238Z,8.84
2019-03-15T21:13:21.143Z,8.92
2019-03-15T21:15:53.014Z,8.97
2019-03-15T21:18:24.654Z,9.06
2019-03-15T21:20:56.353Z,9.12
2019-03-15T21:23:27.955Z,9.14
2019-03-15T21:25:59.475Z,9.18
2019-03-15T21:28:31.006Z,9.17
2019-03-15T21:31:02.593Z,9.05
2019-03-15T21:33:38.487Z,9.11
2019-03-15T21:36:10.153Z,9.15
2019-03-15T21:38:48.411Z,9.08
2019-03-15T21:41:18.394Z,9.07
2019-03-15T21:43:49.930Z,9.03
2019-03-15T21:46:21.783Z,8.96
2019-03-15T21:48:53.610Z,8.88
2019-03-15T21:51:25.295Z,8.85
2019-03-15T21:53:57.383Z,8.78
2019-03-15T21:56:28.972Z,8.66
2019-03-15T21:59:00.554Z,8.62
2019-03-15T22:01:32.751Z,8.59
2019-03-15T22:04:05.487Z,8.61
2019-03-15T22:06:36.983Z,8.58
2019-03-15T22:09:09.184Z,8.60
2019-03-15T22:11:40.750Z,8.65
2019-03-15T22:14:13.716Z,8.62
2019-03-15T22:16:45.284Z,8.62
2019-03-15T22:19:16.979Z,8.66
2019-03-15T22:21:48.534Z,8.65
2019-03-15T22:24:20.599Z,8.72
2019-03-15T22:26:52.233Z,8.75
2019-03-15T22:29:23.928Z,8.71
2019-03-15T22:31:55.658Z,8.78
2019-03-15T22:34:27.244Z,8.73
2019-03-15T22:36:58.744Z,8.67
2019-03-15T22:39:31.135Z,8.73
2019-03-15T22:42:02.732Z,8.70
2019-03-15T22:44:34.400Z,8.67
2019-03-15T22:47:06.355Z,8.72
2019-03-15T22:49:38.219Z,8.81
2019-03-15T22:52:11.573Z,8.76
2019-03-15T22:54:43.628Z,8.76
2019-03-15T22:57:15.137Z,8.71
2019-03-15T22:59:46.917Z,8.64
2019-03-15T23:02:19.142Z,8.62
2019-03-15T23:04:50.844Z,8.62
2019-03-15T23:07:24.706Z,8.58
2019-03-15T23:09:56.717Z,8.59
2019-03-15T23:12:28.467Z,8.54
2019-03-15T23:15:00.391Z,8.54
2019-03-15T23:17:35.057Z,8.52
2019-03-15T23:20:11.287Z,8.50
2019-03-15T23:22:43.191Z,8.51
2019-03-15T23:25:15.256Z,8.48
2019-03-15T23:27:48.329Z,8.45
2019-03-15T23:30:20.626Z,8.42
2019-03-15T23:32:52.307Z,8.46
2019-03-15T23:35:24.189Z,8.43
2019-03-15T23:37:56.618Z,8.44
2019-03-15T23:40:28.650Z,8.39
2019-03-15T23:43:00.463Z,8.38
2019-03-15T23:45:32.048Z,8.32
2019-03-15T23:48:03.746Z,8.21
2019-03-15T23:50:35.329Z,8.16
2019-03-15T23:53:08.413Z,8.22
2019-03-15T23:55:42.693Z,8.23
2019-03-15T23:58:15.972Z,8.26
